createdAt,value
2022-11-19T00:00:08.989Z,0.00
2022-11-19T00:01:08.966Z,0.00
2022-11-19T00:02:09.091Z,0.00
2022-11-19T00:03:10.000Z,0.00
2022-11-19T00:04:08.950Z,0.00
2022-11-19T00:05:09.111Z,0.00
2022-11-19T00:06:08.859Z,0.00
2022-11-19T00:07:08.916Z,0.00
2022-11-19T00:08:08.933Z,0.00
2022-11-19T00:09:08.847Z,0.00
2022-11-19T00:10:08.829Z,0.00
2022-11-19T00:11:09.886Z,0.00
2022-11-19T00:12:08.951Z,0.00
2022-11-19T00:13:08.797Z,0.00
2022-11-19T00:14:08.781Z,0.00
2022-11-19T00:15:08.773Z,0.00
2022-11-19T00:16:08.762Z,0.00
2022-11-19T00:17:08.819Z,0.00
2022-11-19T00:18:08.789Z,0.00
2022-11-19T00:19:08.777Z,0.00
2022-11-19T00:20:09.207Z,0.00
2022-11-19T00:21:08.749Z,0.00
2022-11-19T00:22:08.740Z,0.00
2022-11-19T00:23:08.686Z,0.00
2022-11-19T00:24:08.674Z,0.00
2022-11-19T00:25:09.642Z,0.00
2022-11-19T00:26:09.651Z,0.00
2022-11-19T00:27:08.692Z,0.00
2022-11-19T00:28:08.861Z,0.00
2022-11-19T00:29:09.321Z,0.00
2022-11-19T00:30:19.828Z,0.00
2022-11-19T00:31:09.593Z,0.00
2022-11-19T00:32:08.583Z,0.00
2022-11-19T00:33:08.723Z,0.00
2022-11-19T00:34:08.551Z,0.00
2022-11-19T00:35:08.585Z,0.00
2022-11-19T00:36:08.549Z,0.00
2022-11-19T00:37:08.519Z,0.00
2022-11-19T00:38:09.660Z,0.00
2022-11-19T00:39:08.667Z,0.00
2022-11-19T00:40:08.482Z,0.00
2022-11-19T00:41:08.522Z,0.00
2022-11-19T00:42:08.582Z,0.00
2022-11-19T00:43:08.478Z,0.00
2022-11-19T00:44:08.425Z,0.00
2022-11-19T00:45:08.391Z,0.00
2022-11-19T00:46:08.424Z,0.00
2022-11-19T00:47:08.423Z,0.00
2022-11-19T00:48:08.384Z,0.00
2022-11-19T00:49:08.341Z,0.00
2022-11-19T00:50:08.398Z,0.00
2022-11-19T00:51:08.353Z,0.00
2022-11-19T00:52:08.315Z,0.00
2022-11-19T00:53:08.383Z,0.00
2022-11-19T00:54:08.320Z,0.00
2022-11-19T00:55:08.480Z,0.00
2022-11-19T00:56:08.402Z,0.00
2022-11-19T00:57:08.281Z,0.00
2022-11-19T00:58:08.240Z,0.00
2022-11-19T00:59:08.223Z,0.00
2022-11-19T01:00:08.256Z,0.00
2022-11-19T01:01:08.365Z,0.00
2022-11-19T01:02:08.222Z,0.00
2022-11-19T01:03:08.200Z,0.00
2022-11-19T01:04:08.741Z,0.00
2022-11-19T01:05:08.154Z,0.00
2022-11-19T01:06:09.486Z,0.00
2022-11-19T01:07:08.323Z,0.00
2022-11-19T01:08:08.114Z,0.00
2022-11-19T01:09:08.125Z,0.00
2022-11-19T01:10:08.122Z,0.00
2022-11-19T01:11:08.115Z,0.00
2022-11-19T01:12:08.492Z,0.00
2022-11-19T01:13:08.496Z,0.00
2022-11-19T01:14:08.084Z,0.00
2022-11-19T01:15:08.071Z,0.00
2022-11-19T01:16:08.219Z,0.00
2022-11-19T01:17:08.047Z,0.00
2022-11-19T01:18:08.044Z,0.00
2022-11-19T01:19:08.975Z,0.00
2022-11-19T01:20:08.228Z,0.00
2022-11-19T01:21:07.983Z,0.00
2022-11-19T01:22:07.977Z,0.00
2022-11-19T01:23:07.933Z,0.00
2022-11-19T01:24:07.982Z,0.00
2022-11-19T01:25:07.942Z,0.00
2022-11-19T01:26:07.915Z,0.00
2022-11-19T01:27:07.919Z,0.00
2022-11-19T01:28:08.094Z,0.00
2022-11-19T01:29:09.421Z,0.00
2022-11-19T01:30:08.752Z,0.00
2022-11-19T01:31:08.659Z,0.00
2022-11-19T01:32:07.915Z,0.00
2022-11-19T01:33:08.972Z,0.00
2022-11-19T01:34:07.851Z,0.00
2022-11-19T01:35:07.864Z,0.00
2022-11-19T01:36:08.013Z,0.00
2022-11-19T01:37:08.275Z,0.00
2022-11-19T01:38:07.814Z,0.00
2022-11-19T01:39:07.815Z,0.00
2022-11-19T01:40:07.748Z,0.00
2022-11-19T01:41:07.815Z,0.00
2022-11-19T01:42:07.910Z,0.00
2022-11-19T01:43:07.753Z,0.00
2022-11-19T01:44:08.952Z,0.00
2022-11-19T01:45:07.963Z,0.00
2022-11-19T01:46:07.712Z,0.00
2022-11-19T01:47:07.695Z,0.00
2022-11-19T01:48:07.662Z,0.00
2022-11-19T01:49:07.614Z,0.00
2022-11-19T01:50:07.625Z,0.00
2022-11-19T01:51:07.613Z,0.00
2022-11-19T01:52:07.646Z,0.00
2022-11-19T01:53:07.663Z,0.00
2022-11-19T01:54:07.602Z,0.00
2022-11-19T01:55:07.587Z,0.00
2022-11-19T01:56:07.652Z,0.00
2022-11-19T01:57:08.204Z,0.00
2022-11-19T01:58:08.292Z,0.00
2022-11-19T01:59:07.675Z,0.00
2022-11-19T02:00:07.499Z,0.00
2022-11-19T02:01:07.545Z,0.00
2022-11-19T02:02:07.509Z,0.00
2022-11-19T02:03:07.533Z,0.00
2022-11-19T02:04:07.478Z,0.00
2022-11-19T02:05:07.455Z,0.00
2022-11-19T02:06:07.453Z,0.00
2022-11-19T02:07:07.469Z,0.00
2022-11-19T02:08:07.505Z,0.00
2022-11-19T02:09:07.384Z,0.00
2022-11-19T02:10:08.492Z,0.00
2022-11-19T02:11:07.364Z,0.00
2022-11-19T02:12:07.338Z,0.00
2022-11-19T02:13:07.414Z,0.00
2022-11-19T02:14:07.455Z,0.00
2022-11-19T02:15:07.333Z,0.00
2022-11-19T02:16:07.297Z,0.00
2022-11-19T02:17:07.286Z,0.00
2022-11-19T02:18:07.337Z,0.00
2022-11-19T02:19:07.295Z,0.00
2022-11-19T02:20:08.207Z,0.00
2022-11-19T02:21:08.463Z,0.00
2022-11-19T02:22:07.326Z,0.00
2022-11-19T02:23:07.383Z,0.00
2022-11-19T02:24:08.180Z,0.00
2022-11-19T02:25:07.275Z,0.00
2022-11-19T02:26:07.206Z,0.00
2022-11-19T02:27:07.224Z,0.00
2022-11-19T02:28:07.677Z,0.00
2022-11-19T02:29:07.155Z,0.00
2022-11-19T02:30:07.164Z,0.00
2022-11-19T02:31:07.156Z,0.00
2022-11-19T02:32:07.184Z,0.00
2022-11-19T02:33:07.195Z,0.00
2022-11-19T02:34:07.153Z,0.00
2022-11-19T02:35:07.218Z,0.00
2022-11-19T02:36:08.050Z,0.00
2022-11-19T02:37:07.102Z,0.00
2022-11-19T02:38:07.124Z,0.00
2022-11-19T02:39:07.073Z,0.00
2022-11-19T02:40:07.023Z,0.00
2022-11-19T02:41:07.015Z,0.00
2022-11-19T02:42:07.047Z,0.00
2022-11-19T02:43:07.014Z,0.00
2022-11-19T02:44:07.795Z,0.00
2022-11-19T02:45:07.138Z,0.00
2022-11-19T02:46:07.004Z,0.00
2022-11-19T02:47:06.966Z,0.00
2022-11-19T02:48:07.207Z,0.00
2022-11-19T02:49:06.942Z,0.00
2022-11-19T02:50:07.755Z,0.00
2022-11-19T02:51:06.896Z,0.00
2022-11-19T02:52:06.923Z,0.00
2022-11-19T02:53:06.864Z,0.00
2022-11-19T02:54:06.891Z,0.00
2022-11-19T02:55:06.864Z,0.00
2022-11-19T02:56:07.664Z,0.00
2022-11-19T02:57:06.883Z,0.00
2022-11-19T02:58:06.796Z,0.00
2022-11-19T02:59:07.251Z,0.00
2022-11-19T03:00:06.819Z,0.00
2022-11-19T03:01:07.152Z,0.00
2022-11-19T03:02:06.767Z,0.00
2022-11-19T03:03:06.735Z,0.00
2022-11-19T03:04:06.761Z,0.00
2022-11-19T03:05:06.740Z,0.00
2022-11-19T03:06:06.773Z,0.00
2022-11-19T03:07:06.783Z,0.00
2022-11-19T03:08:06.681Z,0.00
2022-11-19T03:09:06.693Z,0.00
2022-11-19T03:10:07.754Z,0.00
2022-11-19T03:11:06.698Z,0.00
2022-11-19T03:12:06.655Z,0.00
2022-11-19T03:13:07.573Z,0.00
2022-11-19T03:14:07.476Z,0.00
2022-11-19T03:15:06.588Z,0.00
2022-11-19T03:16:06.675Z,0.00
2022-11-19T03:17:07.195Z,0.00
2022-11-19T03:18:06.576Z,0.00
2022-11-19T03:19:06.572Z,0.00
2022-11-19T03:20:06.553Z,0.00
2022-11-19T03:21:06.570Z,0.00
2022-11-19T03:22:06.535Z,0.00
2022-11-19T03:23:07.000Z,0.00
2022-11-19T03:24:06.515Z,0.00
2022-11-19T03:25:06.515Z,0.00
2022-11-19T03:26:06.459Z,0.00
2022-11-19T03:27:06.527Z,0.00
2022-11-19T03:28:06.935Z,0.00
2022-11-19T03:29:06.439Z,0.00
2022-11-19T03:30:06.494Z,0.00
2022-11-19T03:31:06.411Z,0.00
2022-11-19T03:32:06.391Z,0.00
2022-11-19T03:33:06.442Z,0.00
2022-11-19T03:34:06.364Z,0.00
2022-11-19T03:35:06.362Z,0.00
2022-11-19T03:36:07.409Z,0.00
2022-11-19T03:37:06.341Z,0.00
2022-11-19T03:38:06.364Z,0.00
2022-11-19T03:39:06.304Z,0.00
2022-11-19T03:40:06.319Z,0.00
2022-11-19T03:41:06.285Z,0.00
2022-11-19T03:42:06.374Z,0.00
2022-11-19T03:43:06.306Z,0.00
2022-11-19T03:44:06.259Z,0.00
2022-11-19T03:45:06.306Z,0.00
2022-11-19T03:46:06.234Z,0.00
2022-11-19T03:47:06.272Z,0.00
2022-11-19T03:48:06.265Z,0.00
2022-11-19T03:49:06.264Z,0.00
2022-11-19T03:50:07.083Z,0.00
2022-11-19T03:51:06.197Z,0.00
2022-11-19T03:52:06.173Z,0.00
2022-11-19T03:53:06.151Z,0.00
2022-11-19T03:54:06.222Z,0.00
2022-11-19T03:55:06.159Z,0.00
2022-11-19T03:56:06.151Z,0.00
2022-11-19T03:57:06.130Z,0.00
2022-11-19T03:58:06.064Z,0.00
2022-11-19T03:59:08.347Z,0.00
2022-11-19T04:00:06.064Z,0.00
2022-11-19T04:01:06.072Z,0.00
2022-11-19T04:02:06.117Z,0.00
2022-11-19T04:03:06.066Z,0.00
2022-11-19T04:04:07.285Z,0.00
2022-11-19T04:05:06.515Z,0.00
2022-11-19T04:06:07.091Z,0.00
2022-11-19T04:07:06.048Z,0.00
2022-11-19T04:08:06.175Z,0.00
2022-11-19T04:09:06.035Z,0.00
2022-11-19T04:10:06.059Z,0.00
2022-11-19T04:11:36.264Z,0.00
2022-11-19T04:12:36.133Z,0.00
2022-11-19T04:13:37.112Z,0.00
2022-11-19T04:14:36.093Z,0.00
2022-11-19T04:15:36.156Z,0.00
2022-11-19T04:16:36.135Z,0.00
2022-11-19T04:17:36.051Z,0.00
2022-11-19T04:18:36.060Z,0.00
2022-11-19T04:19:36.087Z,0.00
2022-11-19T04:20:36.980Z,0.00
2022-11-19T04:21:36.151Z,0.00
2022-11-19T04:22:36.015Z,0.00
2022-11-19T04:23:35.999Z,0.00
2022-11-19T04:24:35.984Z,0.00
2022-11-19T04:25:35.972Z,0.00
2022-11-19T04:26:35.934Z,0.00
2022-11-19T04:27:35.981Z,0.00
2022-11-19T04:28:35.916Z,0.00
2022-11-19T04:29:35.885Z,0.00
2022-11-19T04:30:35.927Z,0.00
2022-11-19T04:31:35.891Z,0.00
2022-11-19T04:32:35.928Z,0.00
2022-11-19T04:33:35.893Z,0.00
2022-11-19T04:34:36.013Z,0.00
2022-11-19T04:35:35.841Z,0.00
2022-11-19T04:36:35.856Z,0.00
2022-11-19T04:37:35.903Z,0.00
2022-11-19T04:38:35.814Z,0.00
2022-11-19T04:39:35.793Z,0.00
2022-11-19T04:40:35.802Z,0.00
2022-11-19T04:41:35.757Z,0.00
2022-11-19T04:42:35.763Z,0.00
2022-11-19T04:43:35.792Z,0.00
2022-11-19T04:44:35.754Z,0.00
2022-11-19T04:45:35.711Z,0.00
2022-11-19T04:46:35.708Z,0.00
2022-11-19T04:47:35.814Z,0.00
2022-11-19T04:48:35.741Z,0.00
2022-11-19T04:49:35.711Z,0.00
2022-11-19T04:50:35.673Z,0.00
2022-11-19T04:51:35.633Z,0.00
2022-11-19T04:52:40.584Z,0.00
2022-11-19T04:53:36.673Z,0.00
2022-11-19T04:54:35.635Z,0.00
2022-11-19T04:55:35.618Z,0.00
2022-11-19T04:56:35.702Z,0.00
2022-11-19T04:57:35.564Z,0.00
2022-11-19T04:58:35.580Z,0.00
2022-11-19T04:59:35.619Z,0.00
2022-11-19T05:00:35.527Z,0.00
2022-11-19T05:01:35.564Z,0.00
2022-11-19T05:02:35.531Z,0.00
2022-11-19T05:03:35.495Z,0.00
2022-11-19T05:04:35.480Z,0.00
2022-11-19T05:05:35.497Z,0.00
2022-11-19T05:06:35.489Z,0.00
2022-11-19T05:07:35.512Z,0.00
2022-11-19T05:08:35.453Z,0.00
2022-11-19T05:09:35.454Z,0.00
2022-11-19T05:10:35.491Z,0.00
2022-11-19T05:11:35.423Z,0.00
2022-11-19T05:12:35.529Z,0.00
2022-11-19T05:13:35.386Z,0.00
2022-11-19T05:14:35.365Z,0.00
2022-11-19T05:15:35.375Z,0.00
2022-11-19T05:16:35.457Z,0.00
2022-11-19T05:17:35.388Z,0.00
2022-11-19T05:18:35.419Z,0.00
2022-11-19T05:19:35.332Z,0.00
2022-11-19T05:20:35.311Z,0.00
2022-11-19T05:21:35.332Z,0.00
2022-11-19T05:22:35.312Z,0.00
2022-11-19T05:23:35.283Z,0.00
2022-11-19T05:24:35.261Z,0.00
2022-11-19T05:25:35.282Z,0.00
2022-11-19T05:26:35.357Z,0.00
2022-11-19T05:27:35.291Z,0.00
2022-11-19T05:28:39.773Z,0.00
2022-11-19T05:29:36.201Z,0.00
2022-11-19T05:30:35.167Z,0.00
2022-11-19T05:31:35.185Z,0.00
2022-11-19T05:32:35.243Z,0.00
2022-11-19T05:33:35.140Z,0.00
2022-11-19T05:34:35.130Z,0.00
2022-11-19T05:35:35.149Z,0.00
2022-11-19T05:36:36.333Z,0.00
2022-11-19T05:37:35.127Z,0.00
2022-11-19T05:38:35.111Z,0.00
2022-11-19T05:39:35.081Z,0.00
2022-11-19T05:40:35.371Z,0.00
2022-11-19T05:41:35.055Z,0.00
2022-11-19T05:42:35.035Z,0.00
2022-11-19T05:43:35.095Z,0.00
2022-11-19T05:44:35.125Z,0.00
2022-11-19T05:45:35.020Z,0.00
2022-11-19T05:46:35.550Z,0.00
2022-11-19T05:47:34.995Z,0.00
2022-11-19T05:48:35.042Z,0.00
2022-11-19T05:49:35.368Z,0.00
2022-11-19T05:50:36.011Z,0.00
2022-11-19T05:51:34.951Z,0.00
2022-11-19T05:52:34.959Z,0.00
2022-11-19T05:53:34.923Z,0.00
2022-11-19T05:54:34.921Z,0.00
2022-11-19T05:55:34.945Z,0.00
2022-11-19T05:56:34.925Z,0.00
2022-11-19T05:57:34.862Z,0.00
2022-11-19T05:58:34.835Z,0.00
2022-11-19T05:59:36.712Z,0.00
2022-11-19T06:00:34.852Z,0.00
2022-11-19T06:01:34.915Z,0.00
2022-11-19T06:02:34.890Z,0.00
2022-11-19T06:03:34.861Z,0.00
2022-11-19T06:04:34.779Z,0.00
2022-11-19T06:05:40.049Z,0.00
2022-11-19T06:06:35.798Z,0.00
2022-11-19T06:07:34.817Z,0.00
2022-11-19T06:08:34.743Z,0.00
2022-11-19T06:09:34.744Z,0.00
2022-11-19T06:10:34.752Z,0.00
2022-11-19T06:11:34.731Z,4.00
2022-11-19T06:12:34.823Z,0.00
2022-11-19T06:13:34.720Z,0.00
2022-11-19T06:14:34.681Z,4.00
2022-11-19T06:15:34.655Z,0.00
2022-11-19T06:16:35.593Z,4.00
2022-11-19T06:17:35.475Z,4.00
2022-11-19T06:18:35.034Z,4.00
2022-11-19T06:19:34.591Z,4.00
2022-11-19T06:20:34.662Z,8.00
2022-11-19T06:21:34.591Z,8.00
2022-11-19T06:22:34.602Z,8.00
2022-11-19T06:23:34.551Z,12.00
2022-11-19T06:24:34.610Z,12.00
2022-11-19T06:25:34.561Z,16.00
2022-11-19T06:26:34.556Z,16.00
2022-11-19T06:27:34.509Z,20.00
2022-11-19T06:28:34.658Z,24.00
2022-11-19T06:29:34.483Z,28.00
2022-11-19T06:30:34.495Z,32.00
2022-11-19T06:31:34.877Z,40.00
2022-11-19T06:32:34.432Z,44.00
2022-11-19T06:33:34.448Z,52.00
2022-11-19T06:34:34.402Z,60.00
2022-11-19T06:35:34.482Z,64.00
2022-11-19T06:36:40.185Z,76.00
2022-11-19T06:37:35.526Z,88.00
2022-11-19T06:38:34.468Z,96.00
2022-11-19T06:39:34.351Z,108.00
2022-11-19T06:40:34.354Z,124.00
2022-11-19T06:41:34.407Z,136.00
2022-11-19T06:42:34.354Z,152.00
2022-11-19T06:43:34.363Z,168.00
2022-11-19T06:44:34.302Z,180.00
2022-11-19T06:45:34.341Z,200.00
2022-11-19T06:46:34.864Z,216.00
2022-11-19T06:47:34.340Z,236.00
2022-11-19T06:48:34.263Z,256.00
2022-11-19T06:49:34.262Z,276.00
2022-11-19T06:50:34.261Z,292.00
2022-11-19T06:51:34.264Z,312.00
2022-11-19T06:52:34.280Z,336.00
2022-11-19T06:53:34.211Z,356.00
2022-11-19T06:54:36.675Z,380.00
2022-11-19T06:55:34.191Z,404.00
2022-11-19T06:56:35.238Z,428.00
2022-11-19T06:57:34.214Z,452.00
2022-11-19T06:58:34.365Z,472.00
2022-11-19T06:59:34.152Z,500.00
2022-11-19T07:00:34.129Z,524.00
2022-11-19T07:01:34.184Z,548.00
2022-11-19T07:02:34.152Z,572.00
2022-11-19T07:03:34.084Z,600.00
2022-11-19T07:04:34.087Z,628.00
2022-11-19T07:05:34.432Z,652.00
2022-11-19T07:06:34.069Z,684.00
2022-11-19T07:07:34.079Z,712.00
2022-11-19T07:08:34.055Z,736.00
2022-11-19T07:09:34.035Z,768.00
2022-11-19T07:10:33.999Z,800.00
2022-11-19T07:11:34.019Z,824.00
2022-11-19T07:12:34.002Z,844.00
2022-11-19T07:13:34.130Z,868.00
2022-11-19T07:14:33.978Z,892.00
2022-11-19T07:15:33.983Z,920.00
2022-11-19T07:16:34.937Z,936.00
2022-11-19T07:17:33.915Z,952.00
2022-11-19T07:18:33.934Z,968.00
2022-11-19T07:19:33.903Z,988.00
2022-11-19T07:20:33.966Z,1008.00
2022-11-19T07:21:33.894Z,1032.00
2022-11-19T07:22:33.883Z,1056.00
2022-11-19T07:23:33.870Z,1088.00
2022-11-19T07:24:33.879Z,1124.00
2022-11-19T07:25:33.815Z,1152.00
2022-11-19T07:26:34.992Z,1176.00
2022-11-19T07:27:33.793Z,1220.00
2022-11-19T07:28:33.794Z,1256.00
2022-11-19T07:29:33.802Z,1292.00
2022-11-19T07:30:33.763Z,1312.00
2022-11-19T07:31:34.513Z,1336.00
2022-11-19T07:32:33.775Z,1348.00
2022-11-19T07:33:33.731Z,1368.00
2022-11-19T07:34:33.781Z,1392.00
2022-11-19T07:35:33.751Z,1412.00
2022-11-19T07:36:34.544Z,1436.00
2022-11-19T07:37:34.895Z,1456.00
2022-11-19T07:38:37.000Z,1476.00
2022-11-19T07:39:33.704Z,1496.00
2022-11-19T07:40:33.643Z,1516.00
2022-11-19T07:41:33.683Z,1536.00
2022-11-19T07:42:33.691Z,1556.00
2022-11-19T07:43:33.631Z,1576.00
2022-11-19T07:44:33.624Z,1600.00
2022-11-19T07:45:33.644Z,1612.00
2022-11-19T07:46:33.581Z,1632.00
2022-11-19T07:47:33.664Z,1648.00
2022-11-19T07:48:33.675Z,1664.00
2022-11-19T07:49:33.538Z,1684.00
2022-11-19T07:50:33.559Z,1704.00
2022-11-19T07:51:33.544Z,1720.00
2022-11-19T07:52:33.513Z,1728.00
2022-11-19T07:53:33.506Z,1728.00
2022-11-19T07:54:33.490Z,1740.00
2022-11-19T07:55:33.522Z,1772.00
2022-11-19T07:56:33.570Z,1808.00
2022-11-19T07:57:33.966Z,1824.00
2022-11-19T07:58:33.731Z,1840.00
2022-11-19T07:59:33.434Z,1852.00
2022-11-19T08:00:33.450Z,1868.00
2022-11-19T08:01:33.475Z,1876.00
2022-11-19T08:02:33.397Z,1892.00
2022-11-19T08:03:33.378Z,1900.00
2022-11-19T08:04:33.425Z,1912.00
2022-11-19T08:05:33.382Z,1920.00
2022-11-19T08:06:33.383Z,1932.00
2022-11-19T08:07:33.483Z,1936.00
2022-11-19T08:08:33.328Z,1936.00
2022-11-19T08:09:33.832Z,1940.00
2022-11-19T08:10:33.399Z,1964.00
2022-11-19T08:11:33.305Z,1988.00
2022-11-19T08:12:33.271Z,2008.00
2022-11-19T08:13:34.208Z,2028.00
2022-11-19T08:14:33.232Z,2044.00
2022-11-19T08:15:33.272Z,2052.00
2022-11-19T08:16:33.582Z,2064.00
2022-11-19T08:17:33.247Z,2076.00
2022-11-19T08:18:33.373Z,2080.00
2022-11-19T08:19:33.173Z,2092.00
2022-11-19T08:20:33.193Z,2100.00
2022-11-19T08:21:33.175Z,2116.00
2022-11-19T08:22:33.237Z,2120.00
2022-11-19T08:23:33.176Z,2132.00
2022-11-19T08:24:33.194Z,2144.00
2022-11-19T08:25:33.163Z,2152.00
2022-11-19T08:26:34.127Z,2164.00
2022-11-19T08:27:33.084Z,2176.00
2022-11-19T08:28:33.114Z,2188.00
2022-11-19T08:29:33.092Z,2196.00
2022-11-19T08:30:33.057Z,2204.00
2022-11-19T08:31:33.042Z,2212.00
2022-11-19T08:32:33.052Z,2220.00
2022-11-19T08:33:33.033Z,2228.00
2022-11-19T08:34:33.963Z,2232.00
2022-11-19T08:35:33.022Z,2244.00
2022-11-19T08:36:33.039Z,2248.00
2022-11-19T08:37:33.112Z,2256.00
2022-11-19T08:38:38.224Z,2268.00
2022-11-19T08:39:34.034Z,2272.00
2022-11-19T08:40:32.976Z,2280.00
2022-11-19T08:41:32.978Z,2280.00
2022-11-19T08:42:32.934Z,2284.00
2022-11-19T08:43:32.881Z,2288.00
2022-11-19T08:44:32.903Z,2292.00
2022-11-19T08:45:32.891Z,2304.00
2022-11-19T08:46:33.314Z,2308.00
2022-11-19T08:47:32.876Z,2312.00
2022-11-19T08:48:32.849Z,2320.00
2022-11-19T08:49:32.831Z,2324.00
2022-11-19T08:50:32.991Z,2332.00
2022-11-19T08:51:32.800Z,2336.00
2022-11-19T08:52:32.774Z,2336.00
2022-11-19T08:53:32.773Z,2344.00
2022-11-19T08:54:32.778Z,2352.00
2022-11-19T08:55:32.747Z,2356.00
2022-11-19T08:56:32.833Z,2360.00
2022-11-19T08:57:32.783Z,2368.00
2022-11-19T08:58:32.772Z,2372.00
2022-11-19T08:59:32.721Z,2376.00
2022-11-19T09:00:32.750Z,2384.00
2022-11-19T09:01:33.575Z,2388.00
2022-11-19T09:02:32.797Z,2392.00
2022-11-19T09:03:32.671Z,2396.00
2022-11-19T09:04:32.685Z,2400.00
2022-11-19T09:05:32.702Z,2404.00
2022-11-19T09:06:32.624Z,2408.00
2022-11-19T09:07:32.822Z,2416.00
2022-11-19T09:08:32.604Z,2420.00
2022-11-19T09:09:32.615Z,2424.00
2022-11-19T09:10:32.584Z,2428.00
2022-11-19T09:11:32.584Z,2428.00
2022-11-19T09:12:32.549Z,2428.00
2022-11-19T09:13:33.423Z,2432.00
2022-11-19T09:14:32.702Z,2440.00
2022-11-19T09:15:32.537Z,2436.00
2022-11-19T09:16:32.523Z,2436.00
2022-11-19T09:17:32.492Z,2440.00
2022-11-19T09:18:32.455Z,2444.00
2022-11-19T09:19:32.814Z,2444.00
2022-11-19T09:20:32.483Z,2448.00
2022-11-19T09:21:32.502Z,2444.00
2022-11-19T09:22:32.415Z,2448.00
2022-11-19T09:23:32.463Z,2448.00
2022-11-19T09:24:32.422Z,2456.00
2022-11-19T09:25:32.461Z,2460.00
2022-11-19T09:26:32.382Z,2460.00
2022-11-19T09:27:32.391Z,2464.00
2022-11-19T09:28:32.352Z,2468.00
2022-11-19T09:29:33.389Z,2468.00
2022-11-19T09:30:32.453Z,2472.00
2022-11-19T09:31:32.346Z,2480.00
2022-11-19T09:32:32.305Z,2484.00
2022-11-19T09:33:32.299Z,2484.00
2022-11-19T09:34:33.454Z,2488.00
2022-11-19T09:35:32.291Z,2492.00
2022-11-19T09:36:32.284Z,2496.00
2022-11-19T09:37:32.442Z,2508.00
2022-11-19T09:38:32.222Z,2512.00
2022-11-19T09:39:33.219Z,2520.00
2022-11-19T09:40:33.393Z,2532.00
2022-11-19T09:41:32.670Z,2532.00
2022-11-19T09:42:33.263Z,2540.00
2022-11-19T09:43:32.223Z,2552.00
2022-11-19T09:44:32.311Z,2564.00
2022-11-19T09:45:32.169Z,2572.00
2022-11-19T09:46:32.172Z,2572.00
2022-11-19T09:47:32.335Z,2584.00
2022-11-19T09:48:32.121Z,2604.00
2022-11-19T09:49:32.117Z,2608.00
2022-11-19T09:50:32.173Z,2620.00
2022-11-19T09:51:32.853Z,2632.00
2022-11-19T09:52:32.526Z,2660.00
2022-11-19T09:53:32.185Z,2680.00
2022-11-19T09:54:32.185Z,2696.00
2022-11-19T09:55:32.105Z,2724.00
2022-11-19T09:56:32.012Z,2740.00
2022-11-19T09:57:31.996Z,2744.00
2022-11-19T09:58:32.006Z,2744.00
2022-11-19T09:59:32.002Z,2740.00
2022-11-19T10:00:31.978Z,2744.00
2022-11-19T10:01:32.175Z,2732.00
2022-11-19T10:02:32.014Z,2728.00
2022-11-19T10:03:33.982Z,2712.00
2022-11-19T10:04:31.943Z,2700.00
2022-11-19T10:05:31.931Z,2692.00
2022-11-19T10:06:32.941Z,2692.00
2022-11-19T10:07:31.941Z,2684.00
2022-11-19T10:08:31.961Z,2668.00
2022-11-19T10:09:31.982Z,2652.00
2022-11-19T10:10:31.871Z,2640.00
2022-11-19T10:11:31.953Z,2624.00
2022-11-19T10:12:31.849Z,2612.00
2022-11-19T10:13:31.784Z,2600.00
2022-11-19T10:14:31.866Z,2600.00
2022-11-19T10:15:37.210Z,2592.00
2022-11-19T10:16:32.822Z,2592.00
2022-11-19T10:17:32.913Z,2580.00
2022-11-19T10:18:31.942Z,2580.00
2022-11-19T10:19:31.762Z,2580.00
2022-11-19T10:20:32.624Z,2576.00
2022-11-19T10:21:31.714Z,2556.00
2022-11-19T10:22:31.714Z,2548.00
2022-11-19T10:23:31.716Z,2552.00
2022-11-19T10:24:31.895Z,2568.00
2022-11-19T10:25:31.642Z,2556.00
2022-11-19T10:26:31.644Z,2564.00
2022-11-19T10:27:31.745Z,2564.00
2022-11-19T10:28:31.659Z,2576.00
2022-11-19T10:29:32.789Z,2560.00
2022-11-19T10:30:31.627Z,2560.00
2022-11-19T10:31:31.592Z,2556.00
2022-11-19T10:32:31.673Z,2552.00
2022-11-19T10:33:31.721Z,2552.00
2022-11-19T10:34:31.576Z,2552.00
2022-11-19T10:35:31.573Z,2552.00
2022-11-19T10:36:32.622Z,2544.00
2022-11-19T10:37:31.643Z,2536.00
2022-11-19T10:38:31.514Z,2532.00
2022-11-19T10:39:31.503Z,2544.00
2022-11-19T10:40:31.787Z,2544.00
2022-11-19T10:41:31.514Z,2540.00
2022-11-19T10:42:31.450Z,2532.00
2022-11-19T10:43:31.587Z,2524.00
2022-11-19T10:44:31.447Z,2524.00
2022-11-19T10:45:32.405Z,2548.00
2022-11-19T10:46:32.225Z,2548.00
2022-11-19T10:47:31.691Z,2548.00
2022-11-19T10:48:31.406Z,2548.00
2022-11-19T10:49:31.348Z,2552.00
2022-11-19T10:50:31.355Z,2552.00
2022-11-19T10:51:31.334Z,2552.00
2022-11-19T10:52:31.324Z,2552.00
2022-11-19T10:53:31.316Z,2552.00
2022-11-19T10:54:31.307Z,2556.00
2022-11-19T10:55:31.527Z,2552.00
2022-11-19T10:56:31.343Z,2552.00
2022-11-19T10:57:31.598Z,2556.00
2022-11-19T10:58:31.314Z,2556.00
2022-11-19T10:59:31.290Z,2560.00
2022-11-19T11:00:31.678Z,2556.00
2022-11-19T11:01:31.968Z,2556.00
2022-11-19T11:02:31.190Z,2560.00
2022-11-19T11:03:31.250Z,2560.00
2022-11-19T11:04:31.299Z,2564.00
2022-11-19T11:05:31.246Z,2564.00
2022-11-19T11:06:32.311Z,2568.00
2022-11-19T11:07:32.265Z,2576.00
2022-11-19T11:08:32.207Z,2576.00
2022-11-19T11:09:31.122Z,2584.00
2022-11-19T11:10:31.119Z,2584.00
2022-11-19T11:11:31.190Z,2584.00
2022-11-19T11:12:31.069Z,2584.00
2022-11-19T11:13:31.077Z,2584.00
2022-11-19T11:14:31.086Z,2588.00
2022-11-19T11:15:31.052Z,2588.00
2022-11-19T11:16:36.631Z,2592.00
2022-11-19T11:17:32.085Z,2588.00
2022-11-19T11:18:30.998Z,2596.00
2022-11-19T11:19:31.006Z,2592.00
2022-11-19T11:20:31.006Z,2592.00
2022-11-19T11:21:31.208Z,2596.00
2022-11-19T11:22:30.975Z,2596.00
2022-11-19T11:23:31.887Z,2596.00
2022-11-19T11:24:31.053Z,2600.00
2022-11-19T11:25:30.905Z,2604.00
2022-11-19T11:26:30.948Z,2608.00
2022-11-19T11:27:30.895Z,2612.00
2022-11-19T11:28:30.868Z,2612.00
2022-11-19T11:29:30.928Z,2616.00
2022-11-19T11:30:31.023Z,2620.00
2022-11-19T11:31:30.849Z,2628.00
2022-11-19T11:32:30.916Z,2632.00
2022-11-19T11:33:30.876Z,2644.00
2022-11-19T11:34:30.827Z,2648.00
2022-11-19T11:35:31.211Z,2652.00
2022-11-19T11:36:30.846Z,2660.00
2022-11-19T11:37:31.491Z,2672.00
2022-11-19T11:38:30.759Z,2684.00
2022-11-19T11:39:30.853Z,2692.00
2022-11-19T11:40:30.789Z,2700.00
2022-11-19T11:42:04.271Z,2712.00
2022-11-19T11:42:31.788Z,2724.00
2022-11-19T11:43:30.713Z,2732.00
2022-11-19T11:44:30.738Z,2752.00
2022-11-19T11:45:30.675Z,2768.00
2022-11-19T11:46:30.706Z,2788.00
2022-11-19T11:47:30.694Z,2804.00
2022-11-19T11:48:30.962Z,2828.00
2022-11-19T11:49:30.847Z,2848.00
2022-11-19T11:50:30.646Z,2876.00
2022-11-19T11:51:30.633Z,2904.00
2022-11-19T11:52:30.618Z,2936.00
2022-11-19T11:53:30.577Z,2976.00
2022-11-19T11:54:30.558Z,3024.00
2022-11-19T11:55:30.569Z,3072.00
2022-11-19T11:56:30.609Z,3136.00
2022-11-19T11:57:30.549Z,3196.00
2022-11-19T11:58:30.812Z,3260.00
2022-11-19T11:59:30.526Z,3332.00
2022-11-19T12:00:30.528Z,3396.00
2022-11-19T12:01:30.523Z,3456.00
2022-11-19T12:02:30.815Z,3496.00
2022-11-19T12:03:30.646Z,3504.00
2022-11-19T12:04:30.451Z,3552.00
2022-11-19T12:05:31.993Z,3608.00
2022-11-19T12:06:30.623Z,3680.00
2022-11-19T12:07:30.483Z,3744.00
2022-11-19T12:08:30.411Z,3816.00
2022-11-19T12:09:30.377Z,3880.00
2022-11-19T12:10:30.418Z,3936.00
2022-11-19T12:11:30.362Z,4012.00
2022-11-19T12:12:30.655Z,4152.00
2022-11-19T12:13:31.002Z,4240.00
2022-11-19T12:14:31.072Z,4248.00
2022-11-19T12:15:31.436Z,4232.00
2022-11-19T12:16:30.698Z,4248.00
2022-11-19T12:17:31.175Z,4272.00
2022-11-19T12:18:30.825Z,4260.00
2022-11-19T12:19:34.111Z,4184.00
2022-11-19T12:20:30.592Z,4076.00
2022-11-19T12:21:33.680Z,3980.00
2022-11-19T12:22:30.687Z,3928.00
2022-11-19T12:23:30.513Z,3876.00
2022-11-19T12:24:30.837Z,3756.00
2022-11-19T12:25:30.323Z,3604.00
2022-11-19T12:26:30.258Z,3620.00
2022-11-19T12:27:30.554Z,3648.00
2022-11-19T12:28:30.554Z,3716.00
2022-11-19T12:29:30.327Z,3828.00
2022-11-19T12:30:30.743Z,3948.00
2022-11-19T12:31:30.543Z,4040.00
2022-11-19T12:32:30.496Z,4120.00
2022-11-19T12:33:30.529Z,4228.00
2022-11-19T12:34:30.646Z,4328.00
2022-11-19T12:35:30.482Z,4384.00
2022-11-19T12:36:30.391Z,4408.00
2022-11-19T12:37:30.641Z,4424.00
2022-11-19T12:38:30.392Z,4408.00
2022-11-19T12:39:30.633Z,4340.00
2022-11-19T12:40:38.505Z,4212.00
2022-11-19T12:41:31.473Z,4072.00
2022-11-19T12:42:30.705Z,3900.00